createdAt,value
2023-05-19T00:01:31.335Z,10.97
2023-05-19T00:04:02.922Z,10.95
2023-05-19T00:06:33.365Z,11.01
2023-05-19T00:09:02.677Z,10.97
2023-05-19T00:11:30.469Z,10.93
2023-05-19T00:13:59.414Z,11.00
2023-05-19T00:16:29.464Z,10.96
2023-05-19T00:18:58.445Z,10.95
2023-05-19T00:21:26.014Z,10.90
2023-05-19T00:23:54.905Z,10.96
2023-05-19T00:26:23.333Z,10.93
2023-05-19T00:28:51.060Z,10.99
2023-05-19T00:31:18.537Z,10.86
2023-05-19T00:33:47.439Z,10.90
2023-05-19T00:36:15.950Z,10.79
2023-05-19T00:38:43.312Z,10.89
2023-05-19T00:41:12.447Z,10.92
2023-05-19T00:43:42.052Z,10.92
2023-05-19T00:46:11.239Z,10.90
2023-05-19T00:48:38.520Z,10.99
2023-05-19T00:51:06.796Z,10.99
2023-05-19T00:53:35.478Z,10.95
2023-05-19T00:56:03.897Z,11.01
2023-05-19T00:58:33.977Z,10.96
2023-05-19T01:01:05.292Z,10.93
2023-05-19T01:03:35.779Z,10.95
2023-05-19T01:06:07.523Z,10.93
2023-05-19T01:08:37.415Z,11.04
2023-05-19T01:11:06.228Z,10.97
2023-05-19T01:13:35.961Z,11.03
2023-05-19T01:16:09.863Z,11.03
2023-05-19T01:18:46.488Z,10.99
2023-05-19T01:22:03.281Z,11.00
2023-05-19T01:24:50.315Z,10.89
2023-05-19T01:27:39.037Z,10.82
2023-05-19T01:30:30.682Z,10.90
2023-05-19T01:33:00.754Z,11.11
2023-05-19T01:35:29.541Z,11.18
2023-05-19T01:37:58.591Z,11.00
2023-05-19T01:40:27.877Z,10.97
2023-05-19T01:42:57.836Z,11.01
2023-05-19T01:45:26.046Z,10.99
2023-05-19T01:47:57.471Z,10.99
2023-05-19T01:50:25.077Z,11.00
2023-05-19T01:52:52.660Z,11.10
2023-05-19T01:55:21.358Z,11.03
2023-05-19T01:58:00.727Z,11.04
2023-05-19T02:00:34.813Z,11.06
2023-05-19T02:03:21.631Z,11.00
2023-05-19T02:05:56.494Z,11.03
2023-05-19T02:08:27.920Z,10.96
2023-05-19T02:11:00.992Z,10.93
2023-05-19T02:13:32.229Z,10.99
2023-05-19T02:16:05.529Z,10.92
2023-05-19T02:18:35.427Z,10.89
2023-05-19T02:21:02.710Z,10.83
2023-05-19T02:23:29.925Z,10.82
2023-05-19T02:25:57.226Z,10.89
2023-05-19T02:28:28.639Z,10.89
2023-05-19T02:30:55.978Z,10.89
2023-05-19T02:33:26.159Z,10.89
2023-05-19T02:35:55.097Z,10.84
2023-05-19T02:38:22.506Z,10.84
2023-05-19T02:40:51.161Z,11.01
2023-05-19T02:43:18.488Z,10.89
2023-05-19T02:45:46.090Z,10.82
2023-05-19T02:48:13.705Z,10.84
2023-05-19T02:50:41.206Z,10.75
2023-05-19T02:53:09.951Z,10.72
2023-05-19T02:55:37.564Z,10.70
2023-05-19T02:58:05.401Z,10.77
2023-05-19T03:00:32.958Z,10.75
2023-05-19T03:03:03.022Z,10.79
2023-05-19T03:05:31.399Z,10.73
2023-05-19T03:07:58.741Z,10.75
2023-05-19T03:10:27.447Z,10.70
2023-05-19T03:12:57.232Z,10.68
2023-05-19T03:15:24.552Z,10.56
2023-05-19T03:17:52.161Z,10.59
2023-05-19T03:20:19.606Z,10.56
2023-05-19T03:22:47.060Z,10.56
2023-05-19T03:25:14.626Z,10.53
2023-05-19T03:27:43.536Z,10.72
2023-05-19T03:30:12.129Z,10.68
2023-05-19T03:32:40.450Z,10.66
2023-05-19T03:35:08.384Z,10.65
2023-05-19T03:37:35.715Z,10.69
2023-05-19T03:40:03.993Z,10.65
2023-05-19T03:42:31.706Z,10.62
2023-05-19T03:45:02.125Z,10.70
2023-05-19T03:47:29.456Z,10.70
2023-05-19T03:49:56.945Z,10.70
2023-05-19T03:52:25.160Z,10.83
2023-05-19T03:54:55.972Z,10.73
2023-05-19T03:57:23.377Z,10.76
2023-05-19T03:59:53.404Z,10.75
2023-05-19T04:02:25.174Z,10.77
2023-05-19T04:04:54.446Z,10.73
2023-05-19T04:07:21.760Z,10.77
2023-05-19T04:09:49.579Z,10.80
2023-05-19T04:12:16.972Z,10.84
2023-05-19T04:14:44.212Z,10.83
2023-05-19T04:17:12.015Z,10.83
2023-05-19T04:19:46.573Z,10.89
2023-05-19T04:22:14.015Z,10.92
2023-05-19T04:24:41.821Z,10.84
2023-05-19T04:27:12.064Z,10.69
2023-05-19T04:29:40.811Z,10.88
2023-05-19T04:32:08.628Z,10.88
2023-05-19T04:34:36.069Z,10.86
2023-05-19T04:37:04.710Z,10.88
2023-05-19T04:39:32.277Z,10.96
2023-05-19T04:42:00.132Z,10.99
2023-05-19T04:44:27.360Z,10.92
2023-05-19T04:46:58.142Z,10.84
2023-05-19T04:49:27.232Z,11.01
2023-05-19T04:51:55.913Z,10.99
2023-05-19T04:54:24.634Z,11.13
2023-05-19T04:56:51.935Z,11.13
2023-05-19T04:59:19.184Z,11.11
2023-05-19T05:01:46.447Z,11.09
2023-05-19T05:04:13.999Z,11.21
2023-05-19T05:06:47.848Z,11.27
2023-05-19T05:09:17.804Z,11.17
2023-05-19T05:11:47.269Z,11.30
2023-05-19T05:14:17.784Z,11.32
2023-05-19T05:16:45.972Z,11.17
2023-05-19T05:19:14.161Z,11.21
2023-05-19T05:21:41.913Z,11.24
2023-05-19T05:24:10.771Z,11.31
2023-05-19T05:26:38.775Z,11.34
2023-05-19T05:29:10.628Z,11.16
2023-05-19T05:31:40.839Z,11.26
2023-05-19T05:34:08.095Z,11.34
2023-05-19T05:36:35.358Z,11.41
2023-05-19T05:39:03.136Z,11.54
2023-05-19T05:41:35.418Z,11.58
2023-05-19T05:44:12.169Z,11.59
2023-05-19T05:46:40.173Z,11.61
2023-05-19T05:49:08.616Z,11.64
2023-05-19T05:51:36.724Z,11.57
2023-05-19T05:54:12.045Z,11.69
2023-05-19T05:56:41.319Z,11.64
2023-05-19T05:59:10.028Z,11.55
2023-05-19T06:01:37.472Z,11.57
2023-05-19T06:04:05.201Z,11.54
2023-05-19T06:06:32.992Z,11.72
2023-05-19T06:09:00.339Z,11.75
2023-05-19T06:11:28.983Z,11.78
2023-05-19T06:14:00.742Z,11.76
2023-05-19T06:16:33.534Z,11.96
2023-05-19T06:19:07.005Z,11.97
2023-05-19T06:21:39.081Z,12.06
2023-05-19T06:24:06.993Z,12.04
2023-05-19T06:26:38.952Z,12.16
2023-05-19T06:29:10.527Z,12.14
2023-05-19T06:31:47.479Z,12.45
2023-05-19T06:34:17.840Z,12.55
2023-05-19T06:36:55.290Z,12.60
2023-05-19T06:39:28.207Z,12.51
2023-05-19T06:41:55.575Z,12.54
2023-05-19T06:44:22.980Z,12.62
2023-05-19T06:46:51.788Z,12.98
2023-05-19T06:49:19.196Z,13.00
2023-05-19T06:52:02.686Z,12.91
2023-05-19T06:54:29.956Z,12.96
2023-05-19T06:56:57.207Z,12.95
2023-05-19T06:59:24.489Z,12.98
2023-05-19T07:01:53.456Z,13.13
2023-05-19T07:04:21.622Z,13.03
2023-05-19T07:06:50.463Z,13.10
2023-05-19T07:09:19.839Z,13.22
2023-05-19T07:11:47.618Z,13.03
2023-05-19T07:14:15.160Z,13.09
2023-05-19T07:16:44.101Z,13.09
2023-05-19T07:19:12.869Z,13.44
2023-05-19T07:21:40.212Z,13.57
2023-05-19T07:24:07.699Z,13.55
2023-05-19T07:26:34.990Z,13.63
2023-05-19T07:29:07.524Z,13.63
2023-05-19T07:31:34.926Z,13.86
2023-05-19T07:34:03.281Z,13.70
2023-05-19T07:36:49.732Z,13.67
2023-05-19T07:39:19.554Z,13.84
2023-05-19T07:42:30.607Z,14.04
2023-05-19T07:45:03.321Z,14.04
2023-05-19T07:47:39.631Z,14.18
2023-05-19T07:50:10.025Z,14.43
2023-05-19T07:52:38.674Z,14.63
2023-05-19T07:55:06.566Z,14.55
2023-05-19T07:57:33.995Z,14.81
2023-05-19T08:00:07.906Z,14.74
2023-05-19T08:02:35.870Z,14.47
2023-05-19T08:05:03.734Z,14.43
2023-05-19T08:07:32.417Z,14.71
2023-05-19T08:10:01.459Z,15.04
2023-05-19T08:12:31.365Z,15.28
2023-05-19T08:15:01.026Z,15.52
2023-05-19T08:17:28.872Z,15.19
2023-05-19T08:19:56.177Z,15.32
2023-05-19T08:22:23.415Z,15.42
2023-05-19T08:24:51.916Z,15.69
2023-05-19T08:27:21.181Z,15.52
2023-05-19T08:29:48.999Z,15.57
2023-05-19T08:32:17.499Z,15.59
2023-05-19T08:34:44.787Z,15.77
2023-05-19T08:37:14.274Z,15.67
2023-05-19T08:39:41.737Z,15.90
2023-05-19T08:42:10.070Z,15.97
2023-05-19T08:44:40.254Z,15.83
2023-05-19T08:47:13.524Z,15.77
2023-05-19T08:49:47.655Z,15.69
2023-05-19T08:52:25.530Z,15.76
2023-05-19T08:55:01.511Z,15.94
2023-05-19T08:57:29.324Z,15.71
2023-05-19T08:59:58.901Z,15.73
2023-05-19T09:02:27.674Z,15.93
2023-05-19T09:04:58.064Z,16.25
2023-05-19T09:07:26.330Z,16.65
2023-05-19T09:09:53.729Z,17.03
2023-05-19T09:12:21.410Z,17.06
2023-05-19T09:14:49.005Z,17.07
2023-05-19T09:17:19.646Z,17.00
2023-05-19T09:19:50.306Z,17.14
2023-05-19T09:22:20.905Z,17.21
2023-05-19T09:24:49.755Z,17.71
2023-05-19T09:27:24.097Z,17.80
2023-05-19T09:29:51.438Z,17.55
2023-05-19T09:32:29.079Z,17.58
2023-05-19T09:34:57.197Z,18.03
2023-05-19T09:37:24.890Z,17.63
2023-05-19T09:39:53.382Z,18.09
2023-05-19T09:42:26.011Z,18.61
2023-05-19T09:45:03.179Z,18.54
2023-05-19T09:47:36.996Z,17.89
2023-05-19T09:50:06.736Z,17.96
2023-05-19T09:52:36.487Z,17.51
2023-05-19T09:55:05.177Z,17.99
2023-05-19T09:57:38.663Z,18.47
2023-05-19T10:00:25.944Z,18.36
2023-05-19T10:02:57.507Z,18.07
2023-05-19T10:05:25.381Z,17.44
2023-05-19T10:07:54.654Z,17.49
2023-05-19T10:10:23.054Z,17.56
2023-05-19T10:13:09.782Z,17.69
2023-05-19T10:15:57.295Z,18.11
2023-05-19T10:18:45.507Z,18.73
2023-05-19T10:21:15.908Z,18.71
2023-05-19T10:23:46.223Z,18.21
2023-05-19T10:26:17.413Z,18.07
2023-05-19T10:28:49.063Z,18.37
2023-05-19T10:31:21.799Z,18.54
2023-05-19T10:34:07.308Z,18.44
2023-05-19T10:36:46.039Z,18.28
2023-05-19T10:39:19.148Z,18.57
2023-05-19T10:41:59.728Z,18.38
2023-05-19T10:44:37.137Z,18.45
2023-05-19T10:47:12.583Z,18.18
2023-05-19T10:49:41.699Z,18.30
2023-05-19T10:52:22.157Z,18.48
2023-05-19T10:54:54.813Z,18.96
2023-05-19T10:57:32.298Z,19.17
2023-05-19T11:00:11.814Z,19.30
2023-05-19T11:02:41.368Z,19.55
2023-05-19T11:05:11.141Z,19.16
2023-05-19T11:07:41.578Z,19.00
2023-05-19T11:10:09.603Z,19.10
2023-05-19T11:12:45.687Z,19.33
2023-05-19T11:15:17.630Z,19.23
2023-05-19T11:17:48.843Z,19.43
2023-05-19T11:20:26.478Z,19.07
2023-05-19T11:23:10.262Z,19.22
2023-05-19T11:25:45.210Z,19.40
2023-05-19T11:28:13.730Z,19.34
2023-05-19T11:30:46.694Z,19.46
2023-05-19T11:33:14.359Z,19.81
2023-05-19T11:35:45.278Z,19.95
2023-05-19T11:38:14.097Z,20.05
2023-05-19T11:40:46.574Z,20.00
2023-05-19T11:43:13.880Z,19.74
2023-05-19T11:45:41.110Z,20.00
2023-05-19T11:48:11.634Z,19.93
2023-05-19T11:50:46.225Z,20.34
2023-05-19T11:53:14.446Z,20.83
2023-05-19T11:55:46.403Z,20.75
2023-05-19T11:58:14.181Z,20.71
2023-05-19T12:00:44.882Z,20.81
2023-05-19T12:03:12.329Z,20.43
2023-05-19T12:05:44.881Z,20.67
2023-05-19T12:08:16.273Z,21.11
2023-05-19T12:10:43.603Z,21.78
2023-05-19T12:13:11.183Z,21.76
2023-05-19T12:15:39.274Z,21.88
2023-05-19T12:18:07.562Z,22.08
2023-05-19T12:20:38.102Z,22.51
2023-05-19T12:23:11.962Z,23.51
2023-05-19T12:25:39.387Z,23.48
2023-05-19T12:28:07.399Z,23.89
2023-05-19T12:30:35.455Z,23.93
2023-05-19T12:33:03.525Z,23.35
2023-05-19T12:35:34.249Z,23.62
2023-05-19T12:38:05.871Z,23.61
2023-05-19T12:40:36.004Z,24.25
2023-05-19T12:43:04.267Z,24.86
2023-05-19T12:45:35.165Z,25.44
2023-05-19T12:48:03.817Z,24.99
2023-05-19T12:50:31.771Z,25.29
2023-05-19T12:53:03.831Z,25.33
2023-05-19T12:55:31.207Z,25.46
2023-05-19T12:57:59.990Z,25.63
2023-05-19T13:00:32.622Z,25.81
2023-05-19T13:03:01.689Z,25.64
2023-05-19T13:05:30.991Z,24.71
2023-05-19T13:07:59.554Z,23.82
2023-05-19T13:10:27.784Z,23.97
2023-05-19T13:12:55.871Z,23.85
2023-05-19T13:15:29.711Z,22.76
2023-05-19T13:17:57.058Z,22.59
2023-05-19T13:20:26.375Z,22.17
2023-05-19T13:22:56.119Z,22.48
2023-05-19T13:25:23.737Z,22.46
2023-05-19T13:27:51.219Z,22.02
2023-05-19T13:30:19.192Z,21.47
2023-05-19T13:32:47.971Z,21.42
2023-05-19T13:35:15.967Z,21.33
2023-05-19T13:37:43.434Z,21.36
2023-05-19T13:40:11.733Z,21.42
2023-05-19T13:42:39.230Z,20.95
2023-05-19T13:45:07.591Z,21.04
2023-05-19T13:47:34.906Z,20.84
2023-05-19T13:50:05.781Z,21.45
2023-05-19T13:52:33.676Z,21.51
2023-05-19T13:55:00.976Z,21.35
2023-05-19T13:57:28.286Z,21.05
2023-05-19T14:00:01.573Z,21.13
2023-05-19T14:02:31.212Z,21.11
2023-05-19T14:04:58.712Z,20.98
2023-05-19T14:07:28.393Z,20.80
2023-05-19T14:09:55.700Z,20.83
2023-05-19T14:12:27.794Z,21.08
2023-05-19T14:15:02.317Z,20.74
2023-05-19T14:17:29.754Z,20.91
2023-05-19T14:19:57.029Z,20.47
2023-05-19T14:22:24.317Z,20.40
2023-05-19T14:24:52.947Z,20.47
2023-05-19T14:27:20.172Z,20.39
2023-05-19T14:29:48.918Z,20.51
2023-05-19T14:32:16.749Z,20.43
2023-05-19T14:34:44.037Z,20.92
2023-05-19T14:37:11.399Z,20.80
2023-05-19T14:39:38.687Z,21.26
2023-05-19T14:42:07.568Z,21.04
2023-05-19T14:44:34.907Z,20.99
2023-05-19T14:47:02.594Z,20.90
2023-05-19T14:49:30.031Z,20.94
2023-05-19T14:51:57.283Z,20.87
2023-05-19T14:54:24.540Z,20.77
2023-05-19T14:56:51.851Z,20.77
2023-05-19T14:59:21.786Z,20.63
2023-05-19T15:01:49.106Z,20.57
2023-05-19T15:04:16.399Z,20.56
2023-05-19T15:06:44.312Z,20.56
2023-05-19T15:09:14.653Z,20.65
2023-05-19T15:11:41.963Z,20.51
2023-05-19T15:14:09.200Z,20.46
2023-05-19T15:16:37.921Z,20.40
2023-05-19T15:19:05.320Z,20.32
2023-05-19T15:21:32.634Z,20.41
2023-05-19T15:23:59.811Z,20.44
2023-05-19T15:26:29.541Z,20.48
2023-05-19T15:28:56.974Z,20.37
2023-05-19T15:31:24.354Z,20.27
2023-05-19T15:33:52.944Z,20.37
2023-05-19T15:36:20.400Z,20.43
2023-05-19T15:38:47.636Z,20.41
2023-05-19T15:41:14.898Z,20.39
2023-05-19T15:43:42.090Z,20.47
2023-05-19T15:46:09.454Z,20.51
2023-05-19T15:48:36.760Z,20.77
2023-05-19T15:51:05.799Z,20.92
2023-05-19T15:53:33.041Z,21.21
2023-05-19T15:56:00.664Z,21.35
2023-05-19T15:58:28.950Z,21.18
2023-05-19T16:00:56.711Z,21.23
2023-05-19T16:03:24.090Z,21.26
2023-05-19T16:05:52.705Z,21.23
2023-05-19T16:08:21.449Z,21.16
2023-05-19T16:10:49.018Z,21.19
2023-05-19T16:13:16.378Z,21.08
2023-05-19T16:15:43.587Z,20.88
2023-05-19T16:18:11.709Z,20.77
2023-05-19T16:20:39.186Z,20.75
2023-05-19T16:23:06.489Z,20.74
2023-05-19T16:25:35.103Z,20.77
2023-05-19T16:28:02.485Z,20.67
2023-05-19T16:30:29.931Z,20.64
2023-05-19T16:32:57.371Z,20.81
2023-05-19T16:35:24.747Z,20.84
2023-05-19T16:37:52.022Z,20.80
2023-05-19T16:40:20.104Z,20.68
2023-05-19T16:42:48.779Z,20.80
2023-05-19T16:45:19.163Z,20.73
2023-05-19T16:47:46.420Z,20.74
2023-05-19T16:50:13.647Z,20.68
2023-05-19T16:52:40.939Z,20.58
2023-05-19T16:55:09.100Z,20.53
2023-05-19T16:57:36.358Z,20.41
2023-05-19T17:00:05.809Z,20.40
2023-05-19T17:02:33.098Z,20.36
2023-05-19T17:05:00.502Z,20.19
2023-05-19T17:07:29.282Z,20.12
2023-05-19T17:09:56.676Z,19.98
2023-05-19T17:12:24.041Z,19.70
2023-05-19T17:14:52.332Z,19.64
2023-05-19T17:17:20.920Z,19.58
2023-05-19T17:19:48.145Z,19.50
2023-05-19T17:22:15.424Z,19.38
2023-05-19T17:24:42.858Z,19.38
2023-05-19T17:27:10.095Z,19.31
2023-05-19T17:29:37.307Z,19.30
2023-05-19T17:32:05.097Z,19.28
2023-05-19T17:34:33.828Z,19.10
2023-05-19T17:37:01.492Z,19.06
2023-05-19T17:39:28.760Z,18.93
2023-05-19T17:41:56.474Z,18.89
2023-05-19T17:44:23.849Z,18.85
2023-05-19T17:46:51.749Z,18.75
2023-05-19T17:49:19.046Z,18.68
2023-05-19T17:51:47.886Z,18.66
2023-05-19T17:54:15.730Z,18.58
2023-05-19T17:56:45.737Z,18.47
2023-05-19T17:59:13.674Z,18.44
2023-05-19T18:01:41.318Z,18.28
2023-05-19T18:04:09.593Z,18.17
2023-05-19T18:06:38.580Z,18.11
2023-05-19T18:09:11.024Z,18.01
2023-05-19T18:11:38.239Z,17.89
2023-05-19T18:14:05.786Z,17.73
2023-05-19T18:16:33.535Z,17.65
2023-05-19T18:19:01.065Z,17.53
2023-05-19T18:21:28.385Z,17.41
2023-05-19T18:23:55.824Z,17.27
2023-05-19T18:26:24.435Z,17.13
2023-05-19T18:28:51.656Z,17.04
2023-05-19T18:31:19.945Z,16.81
2023-05-19T18:33:47.684Z,16.77
2023-05-19T18:36:17.813Z,16.63
2023-05-19T18:38:45.178Z,16.58
2023-05-19T18:41:12.622Z,16.59
2023-05-19T18:43:41.214Z,16.42
2023-05-19T18:46:08.558Z,16.38
2023-05-19T18:48:36.249Z,16.32
2023-05-19T18:51:03.941Z,16.25
2023-05-19T18:53:33.766Z,16.17
2023-05-19T18:56:01.002Z,16.12
2023-05-19T18:58:28.428Z,16.00
2023-05-19T19:00:57.374Z,15.94
2023-05-19T19:03:24.996Z,15.94
2023-05-19T19:05:55.701Z,15.94
2023-05-19T19:08:23.569Z,15.67
2023-05-19T19:10:51.811Z,15.66
2023-05-19T19:13:19.220Z,15.59
2023-05-19T19:15:46.835Z,15.47
2023-05-19T19:18:15.892Z,15.45
2023-05-19T19:20:43.160Z,15.38
2023-05-19T19:23:10.379Z,15.38
2023-05-19T19:25:37.820Z,15.32
2023-05-19T19:28:05.140Z,15.32
2023-05-19T19:30:32.656Z,15.26
2023-05-19T19:33:00.343Z,15.19
2023-05-19T19:35:29.054Z,15.09
2023-05-19T19:37:56.838Z,15.05
2023-05-19T19:40:25.046Z,14.95
2023-05-19T19:42:52.282Z,14.84
2023-05-19T19:45:20.955Z,14.83
2023-05-19T19:47:48.243Z,14.85
2023-05-19T19:50:15.756Z,14.81
2023-05-19T19:52:44.337Z,14.80
2023-05-19T19:55:11.747Z,14.76
2023-05-19T19:57:38.977Z,14.71
2023-05-19T20:00:10.143Z,14.64
2023-05-19T20:02:45.523Z,14.63
2023-05-19T20:05:22.967Z,14.77
2023-05-19T20:07:51.607Z,14.85
2023-05-19T20:10:18.912Z,14.70
2023-05-19T20:12:47.944Z,14.59
2023-05-19T20:15:15.678Z,14.47
2023-05-19T20:17:42.929Z,14.37
2023-05-19T20:20:12.388Z,14.30
2023-05-19T20:22:39.640Z,14.19
2023-05-19T20:25:09.196Z,14.34
2023-05-19T20:27:36.391Z,14.30
2023-05-19T20:30:03.824Z,14.34
2023-05-19T20:32:31.130Z,14.34
2023-05-19T20:34:58.565Z,14.32
2023-05-19T20:37:25.953Z,14.21
2023-05-19T20:39:53.230Z,14.29
2023-05-19T20:42:21.839Z,14.15
2023-05-19T20:44:49.113Z,14.18
2023-05-19T20:47:16.360Z,14.00
2023-05-19T20:49:43.642Z,13.84
2023-05-19T20:52:10.998Z,13.84
2023-05-19T20:54:38.265Z,13.95
2023-05-19T20:57:09.238Z,13.84
2023-05-19T20:59:37.955Z,13.78
2023-05-19T21:02:06.494Z,13.68
2023-05-19T21:04:34.422Z,13.60
2023-05-19T21:07:01.702Z,13.39
2023-05-19T21:09:29.016Z,13.39
2023-05-19T21:11:56.371Z,13.40
2023-05-19T21:14:25.429Z,13.53
2023-05-19T21:16:56.625Z,13.71
2023-05-19T21:19:24.035Z,13.47
2023-05-19T21:21:51.269Z,13.47
2023-05-19T21:24:18.536Z,13.40
2023-05-19T21:26:45.778Z,13.33
2023-05-19T21:29:13.116Z,13.28
2023-05-19T21:31:40.465Z,13.43
2023-05-19T21:34:09.234Z,13.42
2023-05-19T21:36:36.596Z,13.67
2023-05-19T21:39:04.669Z,13.73
2023-05-19T21:41:32.564Z,13.57
2023-05-19T21:43:59.899Z,13.64
2023-05-19T21:46:29.193Z,13.54
2023-05-19T21:48:56.502Z,13.54
2023-05-19T21:51:25.200Z,13.68
2023-05-19T21:53:52.626Z,13.68
2023-05-19T21:56:19.910Z,13.77
2023-05-19T21:58:47.139Z,13.81
2023-05-19T22:01:14.740Z,13.71
2023-05-19T22:03:42.249Z,13.81
2023-05-19T22:06:09.612Z,13.81
2023-05-19T22:08:38.193Z,13.86
2023-05-19T22:11:05.703Z,13.73
2023-05-19T22:13:33.980Z,13.67
2023-05-19T22:16:01.494Z,13.74
2023-05-19T22:18:28.890Z,13.74
2023-05-19T22:20:56.180Z,13.68
2023-05-19T22:23:23.424Z,13.70
2023-05-19T22:25:52.050Z,13.55
2023-05-19T22:28:19.340Z,13.51
2023-05-19T22:30:46.720Z,13.60
2023-05-19T22:33:14.096Z,13.70
2023-05-19T22:35:42.627Z,13.64
2023-05-19T22:38:10.701Z,13.60
2023-05-19T22:40:38.189Z,13.55
2023-05-19T22:43:06.880Z,13.51
2023-05-19T22:45:34.687Z,13.50
2023-05-19T22:48:02.300Z,13.46
2023-05-19T22:50:29.584Z,13.40
2023-05-19T22:52:56.848Z,13.32
2023-05-19T22:55:24.111Z,13.26
2023-05-19T22:57:51.472Z,13.33
2023-05-19T23:00:21.088Z,13.30
2023-05-19T23:02:48.397Z,13.27
2023-05-19T23:05:15.832Z,13.19
2023-05-19T23:07:43.021Z,13.15
2023-05-19T23:10:11.090Z,13.16
2023-05-19T23:12:38.426Z,13.13
2023-05-19T23:15:07.011Z,12.98
2023-05-19T23:17:35.722Z,12.93
2023-05-19T23:20:03.801Z,12.93
2023-05-19T23:22:32.151Z,13.24
2023-05-19T23:25:02.175Z,13.23
2023-05-19T23:27:29.492Z,12.95
2023-05-19T23:29:56.988Z,12.85
2023-05-19T23:32:24.319Z,12.87
2023-05-19T23:34:53.047Z,12.72
2023-05-19T23:37:20.275Z,12.62
2023-05-19T23:39:47.550Z,12.55
2023-05-19T23:42:14.783Z,12.64
2023-05-19T23:44:42.058Z,12.64
2023-05-19T23:47:09.410Z,12.78
2023-05-19T23:49:36.669Z,12.89
2023-05-19T23:52:05.948Z,12.87
2023-05-19T23:54:33.238Z,12.75
2023-05-19T23:57:02.210Z,12.75
2023-05-19T23:59:29.530Z,12.68
